KADW/ADW METAR and TAF weather

Enter ICAO airport designator
Station Type Date Time Source
KADW METAR 2019/10/18 06:56 UTC NOAA

KADW 180656Z AUTO 31006KT 10SM CLR 09/01 A2984 RMK AO2 SLP112 T00940006 $


Station Type Date Time Source
KADW Decoded METAR 2019/10/18 06:56 UTC NOAA

Camp Springs / Andrews Air Force Base, MD, United States (KADW) 38-49N 076-51W 88M
Oct 18, 2019 - 02:56 AM EDT / 2019.10.18 0656 UTC
Wind: from the NW (310 degrees) at 7 MPH (6 KT):0
Visibility: 10 mile(s):0
Sky conditions: clear
Temperature: 48.9 F (9.4 C)
Dew Point: 33.1 F (0.6 C)
Relative Humidity: 54%
Pressure (altimeter): 29.84 in. Hg (1010 hPa)
ob: KADW 180656Z AUTO 31006KT 10SM CLR 09/01 A2984 RMK AO2 SLP112 T00940006
cycle: 7

Station Type Date Time Source
KADW TAF 2019/10/18 06:57 UTC NOAA

TAF
AMD KADW 180647Z 1806/1907 30012G18KT 9999 FEW055 QNH2977INS
TEMPO 1814/1818 32015G25KT
BECMG 1817/1818 32010G20KT 9999 FEW040 QNH2995INS
BECMG 1822/1823 30012KT 9999 FEW030 QNH3001INS TX16/1818Z TN07/1809Z

Example: see airport list